Latest Weather Observations for King Island Airport

IDT60801

Issued at 11:02 pm EST Tuesday 28 June 2016 (issued every 30 minutes, with the page automatically refreshed every 10 minutes)

About weather observations | Map of weather stations | Latest weather observations for TAS | Other Formats
Station Details ID: 098017 Name: KING ISLAND AIRPORT Lat: -39.88 Lon: 143.88 Height: 37.0 m
Data from the previous 72 hours. | See also: Recent months at King Island Airport
Date/Time
EST
Temp
°C
App
Temp
°C
Dew
Point
°C
Rel
Hum
%
Delta-T
°C
Wind Press
QNH
hPa
Press
MSL
hPa
Rain since
9am
mm
Dir  Spd
km/h
Gust
km/h
Spd
kts
Gust
kts
28/11:00pm 13.2 7.9 9.8 80 1.7 WNW 28 37 15 20 1022.4 1022.4 1.6
28/10:30pm 12.8 7.9 9.8 82 1.5 WNW 26 35 14 19 1022.4 1022.4 1.6
28/10:00pm 12.9 8.9 10.4 85 1.3 WNW 22 32 12 17 1022.4 1022.4 1.6
28/09:30pm 12.5 7.9 9.7 83 1.4 W 24 35 13 19 1022.4 1022.4 1.6
28/09:17pm 12.8 6.9 8.9 77 2.0 W 30 48 16 26 1022.3 1022.3 1.6
28/09:00pm 13.5 7.4 9.7 78 1.9 WNW 32 39 17 21 1022.2 1022.2 1.6
28/08:30pm 13.3 7.9 11.0 86 1.2 NW 30 37 16 20 1022.1 1022.1 1.6
28/08:00pm 13.2 7.3 11.1 87 1.1 WNW 33 41 18 22 1022.0 1022.0 1.6
28/07:30pm 12.9 7.2 11.0 88 1.0 NW 32 37 17 20 1021.7 1021.7 1.6
28/07:00pm 12.7 3.7 10.4 86 1.2 NW 48 61 26 33 1021.6 1021.6 1.6
28/06:48pm 13.3 5.9 11.2 87 1.1 NW 41 59 22 32 1021.3 1021.3 1.6
28/06:30pm 13.7 8.1 11.4 86 1.2 NW 32 43 17 23 1021.0 1021.0 1.6
28/06:00pm 13.3 8.3 11.0 86 1.2 NW 28 33 15 18 1021.0 1021.0 1.6
28/05:30pm 13.2 8.5 10.7 85 1.3 WNW 26 33 14 18 1020.9 1020.9 1.6
28/05:00pm 13.9 9.6 10.9 82 1.6 WNW 24 32 13 17 1020.9 1020.9 1.6
28/04:30pm 14.0 9.0 11.0 82 1.6 WNW 28 39 15 21 1020.7 1020.7 1.6
28/04:00pm 13.9 9.7 11.2 84 1.4 W 24 30 13 16 1020.6 1020.6 1.6
28/03:30pm 14.3 9.5 11.6 84 1.4 WNW 28 35 15 19 1020.5 1020.5 1.6
28/03:00pm 14.5 10.5 11.7 83 1.5 WNW 24 35 13 19 1020.3 1020.3 1.6
28/02:30pm 14.7 10.2 11.5 81 1.7 WNW 26 35 14 19 1020.3 1020.3 1.6
28/02:00pm 14.2 9.7 11.5 84 1.4 W 26 37 14 20 1020.1 1020.1 1.6
28/01:30pm 13.9 8.9 11.1 83 1.5 W 28 41 15 22 1020.3 1020.3 1.4
28/01:00pm 14.4 8.0 10.8 79 1.9 W 35 48 19 26 1020.3 1020.3 1.4
28/12:30pm 14.4 10.1 11.9 85 1.3 W 26 35 14 19 1020.3 1020.3 1.4
28/12:00pm 13.4 9.6 12.5 94 0.5 WNW 24 30 13 16 1020.5 1020.5 1.4
28/11:51am 12.5 8.4 11.4 93 0.6 WNW 24 32 13 17 1020.6 1020.6 1.4
28/11:32am 12.4 6.3 10.5 88 1.0 WNW 33 52 18 28 1020.8 1020.8 1.0
28/11:30am 12.8 7.2 10.3 85 1.3 WNW 30 50 16 27 1020.8 1020.8 0.6
28/11:29am 13.3 8.2 10.7 84 1.4 WNW 28 50 15 27 1020.8 1020.8 0.4
28/11:00am 14.5 9.9 10.9 79 1.9 W 26 43 14 23 1020.5 1020.5 0.4
28/10:30am 13.9 8.1 10.7 81 1.7 WNW 32 43 17 23 1020.3 1020.3 0.4
28/10:00am 13.8 9.9 12.2 90 0.9 WNW 24 33 13 18 1020.2 1020.2 0.4
28/09:56am 13.2 9.1 11.6 90 0.9 WNW 24 33 13 18 1020.2 1020.2 0.4
28/09:40am 11.8 5.4 9.4 85 1.2 WNW 33 52 18 28 1020.1 1020.1 0.2
28/09:36am 13.1 7.5 10.1 82 1.5 WNW 30 50 16 27 1020.1 1020.1 0.0
28/09:30am 13.7 8.2 10.7 82 1.6 WNW 30 39 16 21 1019.8 1019.8 0.0
28/09:00am 13.5 10.5 12.1 91 0.8 W 19 26 10 14 1019.7 1019.7 2.6
28/08:55am 13.0 9.3 11.6 91 0.7 W 22 32 12 17 1019.6 1019.6 2.6
28/08:39am 12.3 7.6 10.7 90 0.8 WNW 26 33 14 18 1019.5 1019.5 2.4
28/08:30am 12.9 8.0 11.3 90 0.8 WNW 28 33 15 18 1019.3 1019.3 2.2
28/08:07am 13.4 7.9 10.6 83 1.5 WNW 30 48 16 26 1019.2 1019.2 2.2
28/08:00am 12.9 8.0 9.9 82 1.5 WNW 26 33 14 18 1019.1 1019.1 2.2
28/07:30am 12.8 7.9 10.0 83 1.4 WNW 26 37 14 20 1018.9 1018.9 2.2
28/07:00am 12.8 7.6 10.3 85 1.3 WNW 28 39 15 21 1018.7 1018.7 2.2
28/06:30am 12.7 7.4 9.7 82 1.5 WNW 28 39 15 21 1018.3 1018.3 2.2
28/06:00am 12.7 8.3 10.4 86 1.2 WNW 24 33 13 18 1017.9 1017.9 2.2
28/05:36am 12.2 7.8 10.4 89 0.9 WNW 24 33 13 18 1017.7 1017.7 2.2
28/05:30am 12.2 6.7 10.4 89 0.9 WNW 30 41 16 22 1017.7 1017.7 2.2
28/05:21am 12.2 7.0 10.1 87 1.1 WNW 28 46 15 25 1017.6 1017.6 2.2
28/05:20am 12.5 7.3 10.4 87 1.1 W 28 46 15 25 1017.6 1017.6 2.2
28/05:00am 12.6 6.9 9.8 83 1.4 WNW 30 41 16 22 1017.4 1017.4 1.8
28/04:30am 12.6 7.2 9.6 82 1.5 WNW 28 35 15 19 1017.3 1017.3 1.8
28/04:00am 12.3 7.9 10.5 89 0.9 WNW 24 32 13 17 1017.3 1017.3 1.8
28/03:30am 12.1 6.5 10.0 87 1.1 WNW 30 41 16 22 1017.4 1017.4 1.8
28/03:00am 11.7 7.2 10.1 90 0.8 WNW 24 32 13 17 1017.6 1017.6 1.8
28/02:53am 11.5 7.0 9.9 90 0.8 WNW 24 32 13 17 1017.6 1017.6 1.8
28/02:45am 11.5 4.9 10.1 91 0.7 WNW 35 54 19 29 1017.6 1017.6 1.8
28/02:39am 11.5 3.4 9.9 90 0.8 WNW 43 57 23 31 1017.7 1017.7 1.6
28/02:30am 12.8 6.8 10.0 83 1.4 WNW 32 57 17 31 1017.6 1017.6 1.6
28/02:29am 13.0 7.3 9.8 81 1.6 WNW 30 50 16 27 1017.6 1017.6 1.6
28/02:00am 12.5 6.5 8.8 78 1.8 WNW 30 41 16 22 1017.3 1017.3 1.6
28/01:30am 12.4 7.1 8.5 77 1.9 WNW 26 33 14 18 1017.4 1017.4 1.6
28/01:00am 12.1 7.7 8.9 81 1.6 W 22 33 12 18 1017.5 1017.5 1.6
28/12:30am 11.7 7.0 9.4 86 1.2 WNW 24 30 13 16 1017.5 1017.5 1.6
28/12:00am 11.4 5.5 9.0 85 1.2 WNW 30 37 16 20 1017.7 1017.7 1.6
 
Date/Time
EST
Temp
°C
App
Temp
°C
Dew
Point
°C
Rel
Hum
%
Delta-T
°C
Wind Press
QNH
hPa
Press
MSL
hPa
Rain since
9am
mm
Dir  Spd
km/h
Gust
km/h
Spd
kts
Gust
kts
27/11:30pm 11.7 6.2 9.1 84 1.3 WNW 28 35 15 19 1017.6 1017.6 1.6
27/11:00pm 11.2 5.0 9.5 89 0.9 WNW 32 41 17 22 1017.7 1017.7 1.6
27/10:37pm 11.5 5.7 9.6 88 1.0 WNW 30 43 16 23 1017.8 1017.8 1.2
27/10:30pm 11.8 6.0 9.4 85 1.2 W 30 39 16 21 1017.8 1017.8 1.2
27/10:27pm 11.8 5.8 8.8 82 1.5 W 30 41 16 22 1017.8 1017.8 1.2
27/10:00pm 12.5 6.7 7.8 73 2.3 WNW 28 37 15 20 1017.4 1017.4 1.2
27/09:30pm 12.2 6.0 6.3 67 2.8 WNW 28 39 15 21 1017.4 1017.4 1.2
27/09:00pm 12.1 5.8 5.9 66 2.9 WNW 28 39 15 21 1017.4 1017.4 1.2
27/08:30pm 11.9 5.8 6.6 70 2.5 W 28 39 15 21 1017.4 1017.4 1.2
27/08:00pm 12.0 6.3 6.9 71 2.4 W 26 33 14 18 1017.3 1017.3 1.2
27/07:30pm 11.9 6.1 6.4 69 2.6 W 26 35 14 19 1017.0 1017.0 1.2
27/07:00pm 11.9 5.4 6.6 70 2.5 W 30 39 16 21 1017.0 1017.0 1.2
27/06:30pm 11.6 5.4 6.3 70 2.5 WNW 28 35 15 19 1016.7 1016.7 1.2
27/06:00pm 11.5 5.8 6.6 72 2.3 W 26 32 14 17 1016.5 1016.5 1.2
27/05:30pm 11.3 5.3 5.4 67 2.7 W 26 35 14 19 1016.2 1016.2 1.2
27/05:00pm 11.6 5.7 5.9 68 2.7 W 26 37 14 20 1015.9 1015.9 1.2
27/04:30pm 11.8 5.7 6.7 71 2.4 W 28 41 15 22 1015.6 1015.6 1.2
27/04:00pm 12.3 6.9 6.4 67 2.8 W 24 32 13 17 1015.5 1015.5 1.2
27/03:30pm 12.5 6.5 5.2 61 3.4 W 26 33 14 18 1015.5 1015.5 1.2
27/03:00pm 12.5 6.7 6.3 66 2.9 W 26 35 14 19 1015.4 1015.4 1.2
27/02:30pm 12.2 8.0 7.3 72 2.4 W 19 26 10 14 1015.4 1015.4 1.2
27/02:00pm 10.5 3.7 6.8 78 1.7 W 32 43 17 23 1015.6 1015.6 1.2
27/01:30pm 12.3 8.0 7.8 74 2.2 W 20 26 11 14 1015.4 1015.4 1.2
27/01:00pm 11.3 6.8 6.8 74 2.1 W 20 28 11 15 1015.5 1015.5 1.2
27/12:30pm 11.9 8.6 9.5 85 1.2 WNW 17 24 9 13 1015.6 1015.6 1.2
27/12:00pm 11.7 7.4 7.2 74 2.2 W 19 26 10 14 1015.9 1015.9 1.0
27/11:30am 11.7 7.4 6.8 72 2.3 W 19 28 10 15 1015.9 1015.9 1.0
27/11:10am 11.4 8.1 8.1 80 1.6 W 15 22 8 12 1015.9 1015.9 0.8
27/11:00am 10.1 4.9 7.3 83 1.3 WNW 24 37 13 20 1016.1 1016.1 0.8
27/10:53am 9.6 3.5 6.7 82 1.4 WNW 28 37 15 20 1016.1 1016.1 0.8
27/10:30am 11.4 7.4 6.5 72 2.3 W 17 24 9 13 1015.8 1015.8 0.0
27/10:00am 12.1 8.3 5.7 65 3.0 W 15 20 8 11 1015.6 1015.6 0.0
27/09:30am 11.3 7.7 6.8 74 2.1 WSW 15 19 8 10 1015.4 1015.4 0.0
27/09:00am 10.4 7.0 6.0 74 2.0 WSW 13 17 7 9 1015.2 1015.2 10.0
27/08:30am 9.8 6.5 6.5 80 1.5 WSW 13 17 7 9 1014.9 1014.9 10.0
27/08:00am 9.1 6.2 6.4 83 1.2 SW 11 15 6 8 1014.6 1014.6 10.0
27/07:30am 8.9 5.8 5.6 80 1.5 SW 11 15 6 8 1014.3 1014.3 10.0
27/07:00am 8.6 5.5 5.7 82 1.3 SW 11 15 6 8 1014.0 1014.0 10.0
27/06:30am 9.4 5.7 6.3 81 1.4 SW 15 19 8 10 1013.7 1013.7 10.0
27/06:00am 9.2 7.1 6.8 85 1.1 SSW 7 9 4 5 1013.5 1013.5 10.0
27/05:30am 9.2 7.9 7.5 89 0.8 S 4 11 2 6 1013.1 1013.1 10.0
27/05:00am 9.6 7.1 8.0 90 0.8 SSW 11 13 6 7 1012.9 1012.9 10.0
27/04:30am 9.5 6.9 7.9 90 0.8 SW 11 13 6 7 1012.7 1012.7 10.0
27/04:00am 9.8 6.2 8.4 91 0.7 SSW 17 19 9 10 1012.6 1012.6 10.0
27/03:30am 9.8 7.0 8.6 92 0.6 SW 13 17 7 9 1012.5 1012.5 10.0
27/03:00am 10.3 7.7 9.5 95 0.4 SSW 13 19 7 10 1012.5 1012.5 10.0
27/02:30am 10.3 8.1 9.5 95 0.4 SW 11 15 6 8 1012.3 1012.3 9.8
27/02:14am 10.3 7.7 9.5 95 0.4 SW 13 19 7 10 1012.2 1012.2 9.6
27/02:00am 10.8 7.6 10.0 95 0.4 WSW 17 28 9 15 1012.2 1012.2 9.6
27/01:56am 11.0 7.5 10.2 95 0.4 W 19 28 10 15 1012.2 1012.2 9.6
27/01:33am 11.3 6.5 10.4 94 0.5 WNW 26 33 14 18 1012.2 1012.2 8.0
27/01:30am 11.3 6.1 10.4 94 0.5 WNW 28 41 15 22 1012.2 1012.2 7.8
27/01:24am 11.4 5.5 10.5 94 0.5 WNW 32 44 17 24 1012.3 1012.3 7.2
27/01:00am 11.3 5.8 10.4 94 0.5 WNW 30 46 16 25 1012.3 1012.3 5.8
27/12:42am 11.3 4.4 10.2 93 0.6 NW 37 48 20 26 1012.3 1012.3 3.4
27/12:30am 11.2 5.1 10.3 94 0.5 NW 33 46 18 25 1012.3 1012.3 2.8
27/12:22am 11.2 4.3 10.3 94 0.5 NW 37 46 20 25 1012.6 1012.6 2.6
27/12:12am 11.0 4.4 10.1 94 0.5 NW 35 50 19 27 1012.6 1012.6 2.2
27/12:09am 11.3 4.8 10.4 94 0.5 NW 35 50 19 27 1012.6 1012.6 2.0
27/12:00am 11.2 4.6 10.1 93 0.6 NW 35 50 19 27 1012.4 1012.4 1.4
 
Date/Time
EST
Temp
°C
App
Temp
°C
Dew
Point
°C
Rel
Hum
%
Delta-T
°C
Wind Press
QNH
hPa
Press
MSL
hPa
Rain since
9am
mm
Dir  Spd
km/h
Gust
km/h
Spd
kts
Gust
kts
26/11:44pm 10.9 4.6 9.8 93 0.6 NW 33 41 18 22 1012.6 1012.6 1.0
26/11:40pm 11.0 4.9 9.9 93 0.6 NW 32 43 17 23 1012.6 1012.6 0.8
26/11:30pm 11.0 3.6 9.8 92 0.6 NW 39 50 21 27 1012.7 1012.7 0.6
26/11:14pm 11.1 3.5 9.0 87 1.0 NNW 39 52 21 28 1012.6 1012.6 0.2
26/11:00pm 11.2 3.1 8.6 84 1.3 NNW 41 52 22 28 1012.6 1012.6 0.0
26/10:30pm 11.2 3.5 8.6 84 1.3 NNW 39 54 21 29 1012.7 1012.7 0.0
26/10:14pm 11.1 4.2 8.7 85 1.2 NNW 35 43 19 23 1012.8 1012.8 0.0
26/10:00pm 10.8 3.8 8.4 85 1.2 NNW 35 50 19 27 1012.9 1012.9 0.0
26/09:30pm 11.5 4.3 7.8 78 1.8 NNW 35 48 19 26 1013.0 1013.0 0.0
26/09:00pm 11.4 4.1 7.3 76 2.0 NNW 35 43 19 23 1013.1 1013.1 0.0
26/08:30pm 11.6 4.9 7.5 76 2.0 NNW 32 41 17 22 1013.1 1013.1 0.0
26/08:00pm 11.5 4.2 7.4 76 2.0 NNW 35 44 19 24 1013.2 1013.2 0.0
26/07:30pm 11.6 3.9 6.9 73 2.2 NNW 37 48 20 26 1013.3 1013.3 0.0
26/07:00pm 11.8 4.0 6.7 71 2.4 NNW 37 46 20 25 1013.5 1013.5 0.0
26/06:30pm 11.5 4.4 6.6 72 2.3 NNW 33 39 18 21 1013.5 1013.5 0.0
26/06:00pm 11.6 4.1 6.5 71 2.4 NNW 35 48 19 26 1013.5 1013.5 0.0
26/05:30pm 11.3 4.9 6.8 74 2.1 NW 30 37 16 20 1013.5 1013.5 0.0
26/05:00pm 11.2 4.8 6.9 75 2.0 NNW 30 39 16 21 1013.6 1013.6 0.0
26/04:30pm 10.9 4.0 6.5 74 2.1 NNW 32 37 17 20 1013.6 1013.6 0.0
26/04:00pm 11.1 3.7 6.6 74 2.1 NW 35 41 19 22 1013.8 1013.8 0.0
26/03:30pm 11.1 4.0 6.5 73 2.2 NNW 33 41 18 22 1014.0 1014.0 0.0
26/03:00pm 10.9 3.8 6.3 73 2.2 NNW 33 39 18 21 1014.3 1014.3 0.0
26/02:30pm 11.2 4.1 6.5 73 2.2 NNW 33 39 18 21 1014.4 1014.4 0.0
26/02:00pm 10.8 3.8 6.2 73 2.1 NNW 32 39 17 21 1014.7 1014.7 0.0
26/01:30pm 10.8 3.5 5.6 70 2.4 NNW 33 41 18 22 1014.9 1014.9 0.0
26/01:00pm 10.6 3.2 5.2 69 2.5 NW 33 41 18 22 1015.1 1015.1 0.0
26/12:30pm 10.8 3.1 5.3 69 2.5 NNW 35 41 19 22 1015.6 1015.6 0.0
26/12:00pm 11.1 3.1 5.8 70 2.5 NNW 37 48 20 26 1016.1 1016.1 0.0
26/11:30am 11.1 3.4 5.4 68 2.6 NNW 35 44 19 24 1016.6 1016.6 0.0
26/11:00am 11.1 3.7 5.2 67 2.7 NNW 33 46 18 25 1017.1 1017.1 0.0
26/10:30am 10.9 3.3 5.9 71 2.3 NNW 35 46 19 25 1017.3 1017.3 0.0
26/10:00am 11.4 4.8 5.9 69 2.6 NNW 30 37 16 20 1017.5 1017.5 0.0
26/09:30am 11.1 3.8 5.6 69 2.5 NNW 33 41 18 22 1017.7 1017.7 0.0
26/09:00am 10.8 3.5 5.3 69 2.5 NNW 33 39 18 21 1017.8 1017.8 1.2
26/08:30am 10.8 3.8 6.0 72 2.2 NNW 32 39 17 21 1017.9 1017.9 1.2
26/08:00am 10.5 3.3 5.9 73 2.1 NNW 33 43 18 23 1018.0 1018.0 1.2
26/07:30am 10.6 4.0 6.2 74 2.1 NNW 30 37 16 20 1018.0 1018.0 1.2
26/07:00am 10.5 4.3 6.3 75 2.0 NW 28 35 15 19 1017.9 1017.9 1.2
26/06:30am 10.2 3.6 6.2 76 1.9 NW 30 33 16 18 1017.9 1017.9 1.2
26/06:00am 10.5 3.5 6.1 74 2.0 NW 32 35 17 19 1017.9 1017.9 1.2
26/05:30am 10.6 3.6 6.2 74 2.1 NW 32 37 17 20 1017.9 1017.9 1.2
26/05:00am 10.6 4.4 6.0 73 2.1 NW 28 39 15 21 1018.0 1018.0 1.2
26/04:30am 10.9 4.0 6.3 73 2.2 NW 32 39 17 21 1018.2 1018.2 1.2
26/04:00am 10.7 3.8 6.3 74 2.1 NW 32 39 17 21 1018.2 1018.2 1.2
26/03:30am 11.0 4.1 6.4 73 2.2 NW 32 39 17 21 1018.6 1018.6 1.2
26/03:00am 11.2 4.7 6.7 74 2.1 NW 30 37 16 20 1018.8 1018.8 1.2
26/02:30am 11.3 4.4 6.4 72 2.3 NW 32 41 17 22 1018.8 1018.8 1.2
26/02:00am 11.5 4.7 7.0 74 2.1 WNW 32 37 17 20 1018.7 1018.7 1.2
26/01:30am 11.6 6.5 7.5 76 2.0 WNW 24 35 13 19 1018.8 1018.8 1.2
26/01:00am 11.3 7.6 8.0 80 1.6 W 17 28 9 15 1019.1 1019.1 1.2
26/12:30am 10.9 5.0 7.6 80 1.6 NW 28 33 15 18 1019.5 1019.5 1.2
26/12:00am 11.0 7.5 7.3 78 1.8 W 15 20 8 11 1019.6 1019.6 1.2
 
Date/Time
EST
Temp
°C
App
Temp
°C
Dew
Point
°C
Rel
Hum
%
Delta-T
°C
Wind Press
QNH
hPa
Press
MSL
hPa
Rain since
9am
mm
Dir  Spd
km/h
Gust
km/h
Spd
kts
Gust
kts
25/11:30pm 10.8 7.3 7.3 79 1.7 WNW 15 20 8 11 1019.7 1019.7 1.2

Other Formats:

Comma delimited format used in spreadsheet applications
http://www.bom.gov.au/fwo/IDT60801/IDT60801.94850.axf

JavaScript Object Notation format (JSON) in row-major order
http://www.bom.gov.au/fwo/IDT60801/IDT60801.94850.json